sensor_id;sensor_type;location;lat;lon;timestamp;P1;durP1;ratioP1;P2;durP2;ratioP2
55292;SDS011;41157;53.560;10.098;2023-10-19T00:02:45;9.07;;;5.20;;
55292;SDS011;41157;53.560;10.098;2023-10-19T00:05:11;8.67;;;5.07;;
55292;SDS011;41157;53.560;10.098;2023-10-19T00:07:39;9.70;;;5.63;;
55292;SDS011;41157;53.560;10.098;2023-10-19T00:10:07;6.37;;;4.57;;
55292;SDS011;41157;53.560;10.098;2023-10-19T00:12:34;9.67;;;4.67;;
55292;SDS011;41157;53.560;10.098;2023-10-19T00:15:02;15.03;;;5.73;;
55292;SDS011;41157;53.560;10.098;2023-10-19T00:17:29;8.70;;;5.00;;
55292;SDS011;41157;53.560;10.098;2023-10-19T00:19:59;9.20;;;5.17;;
55292;SDS011;41157;53.560;10.098;2023-10-19T00:22:52;7.97;;;5.03;;
55292;SDS011;41157;53.560;10.098;2023-10-19T00:25:19;7.33;;;5.40;;
55292;SDS011;41157;53.560;10.098;2023-10-19T00:27:48;7.53;;;4.77;;
55292;SDS011;41157;53.560;10.098;2023-10-19T00:30:14;8.30;;;5.40;;
55292;SDS011;41157;53.560;10.098;2023-10-19T00:32:43;10.03;;;5.60;;
55292;SDS011;41157;53.560;10.098;2023-10-19T00:35:12;10.00;;;5.00;;
55292;SDS011;41157;53.560;10.098;2023-10-19T00:37:52;7.93;;;5.60;;
55292;SDS011;41157;53.560;10.098;2023-10-19T00:40:21;10.50;;;5.23;;
55292;SDS011;41157;53.560;10.098;2023-10-19T00:43:02;10.50;;;5.90;;
55292;SDS011;41157;53.560;10.098;2023-10-19T00:45:33;10.30;;;5.87;;
55292;SDS011;41157;53.560;10.098;2023-10-19T00:48:05;11.93;;;5.10;;
55292;SDS011;41157;53.560;10.098;2023-10-19T00:50:35;8.03;;;5.53;;
55292;SDS011;41157;53.560;10.098;2023-10-19T00:53:03;9.00;;;5.43;;
55292;SDS011;41157;53.560;10.098;2023-10-19T00:55:33;8.83;;;5.37;;
55292;SDS011;41157;53.560;10.098;2023-10-19T00:58:01;9.33;;;6.23;;
55292;SDS011;41157;53.560;10.098;2023-10-19T01:00:35;7.27;;;5.00;;
55292;SDS011;41157;53.560;10.098;2023-10-19T01:03:08;10.43;;;5.50;;
55292;SDS011;41157;53.560;10.098;2023-10-19T01:05:43;6.43;;;4.90;;
55292;SDS011;41157;53.560;10.098;2023-10-19T01:08:13;7.50;;;5.40;;
55292;SDS011;41157;53.560;10.098;2023-10-19T01:10:48;12.17;;;5.80;;
55292;SDS011;41157;53.560;10.098;2023-10-19T01:13:17;10.10;;;5.67;;
55292;SDS011;41157;53.560;10.098;2023-10-19T01:15:44;8.50;;;5.27;;
55292;SDS011;41157;53.560;10.098;2023-10-19T01:18:14;7.90;;;5.30;;
55292;SDS011;41157;53.560;10.098;2023-10-19T01:20:44;8.57;;;5.50;;
55292;SDS011;41157;53.560;10.098;2023-10-19T01:23:18;8.33;;;5.13;;
55292;SDS011;41157;53.560;10.098;2023-10-19T01:25:53;8.00;;;5.07;;
55292;SDS011;41157;53.560;10.098;2023-10-19T01:28:31;9.70;;;5.53;;
55292;SDS011;41157;53.560;10.098;2023-10-19T01:31:08;8.23;;;5.07;;
55292;SDS011;41157;53.560;10.098;2023-10-19T01:33:40;10.03;;;5.20;;
55292;SDS011;41157;53.560;10.098;2023-10-19T01:36:08;9.30;;;5.10;;
55292;SDS011;41157;53.560;10.098;2023-10-19T01:38:40;10.87;;;5.00;;
55292;SDS011;41157;53.560;10.098;2023-10-19T01:41:07;7.60;;;5.10;;
55292;SDS011;41157;53.560;10.098;2023-10-19T01:43:38;8.00;;;4.90;;
55292;SDS011;41157;53.560;10.098;2023-10-19T01:46:05;7.53;;;5.60;;
55292;SDS011;41157;53.560;10.098;2023-10-19T01:48:36;10.20;;;4.83;;
55292;SDS011;41157;53.560;10.098;2023-10-19T01:51:04;10.17;;;5.80;;
55292;SDS011;41157;53.560;10.098;2023-10-19T01:53:32;9.00;;;5.13;;
55292;SDS011;41157;53.560;10.098;2023-10-19T01:56:01;8.03;;;5.17;;
55292;SDS011;41157;53.560;10.098;2023-10-19T01:58:30;13.93;;;5.30;;
55292;SDS011;41157;53.560;10.098;2023-10-19T02:01:01;10.20;;;6.07;;
55292;SDS011;41157;53.560;10.098;2023-10-19T02:03:32;8.67;;;5.33;;
55292;SDS011;41157;53.560;10.098;2023-10-19T02:06:00;7.10;;;5.53;;
55292;SDS011;41157;53.560;10.098;2023-10-19T02:08:38;8.13;;;5.47;;
55292;SDS011;41157;53.560;10.098;2023-10-19T02:11:06;10.33;;;5.77;;
55292;SDS011;41157;53.560;10.098;2023-10-19T02:13:41;12.00;;;5.70;;
55292;SDS011;41157;53.560;10.098;2023-10-19T02:16:10;8.37;;;5.90;;
55292;SDS011;41157;53.560;10.098;2023-10-19T02:18:36;14.60;;;6.60;;
55292;SDS011;41157;53.560;10.098;2023-10-19T02:21:03;10.73;;;5.30;;
55292;SDS011;41157;53.560;10.098;2023-10-19T02:23:31;10.00;;;6.10;;
55292;SDS011;41157;53.560;10.098;2023-10-19T02:25:59;11.10;;;6.10;;
55292;SDS011;41157;53.560;10.098;2023-10-19T02:28:26;9.57;;;5.53;;
55292;SDS011;41157;53.560;10.098;2023-10-19T02:30:56;11.17;;;6.00;;
55292;SDS011;41157;53.560;10.098;2023-10-19T02:33:23;14.60;;;6.20;;
55292;SDS011;41157;53.560;10.098;2023-10-19T02:35:51;7.73;;;5.50;;
55292;SDS011;41157;53.560;10.098;2023-10-19T02:38:17;11.57;;;6.10;;
55292;SDS011;41157;53.560;10.098;2023-10-19T02:40:47;11.27;;;6.17;;
55292;SDS011;41157;53.560;10.098;2023-10-19T02:43:13;9.93;;;6.20;;
55292;SDS011;41157;53.560;10.098;2023-10-19T02:45:44;11.50;;;6.67;;
55292;SDS011;41157;53.560;10.098;2023-10-19T02:48:12;8.50;;;5.73;;
55292;SDS011;41157;53.560;10.098;2023-10-19T02:50:39;8.93;;;5.93;;
55292;SDS011;41157;53.560;10.098;2023-10-19T02:53:06;12.43;;;6.77;;
55292;SDS011;41157;53.560;10.098;2023-10-19T02:55:37;9.03;;;6.37;;
55292;SDS011;41157;53.560;10.098;2023-10-19T02:58:05;11.97;;;6.50;;
55292;SDS011;41157;53.560;10.098;2023-10-19T03:00:31;9.17;;;6.23;;
55292;SDS011;41157;53.560;10.098;2023-10-19T03:03:00;10.77;;;5.73;;
55292;SDS011;41157;53.560;10.098;2023-10-19T03:05:30;11.83;;;6.03;;
55292;SDS011;41157;53.560;10.098;2023-10-19T03:07:59;9.30;;;6.03;;
55292;SDS011;41157;53.560;10.098;2023-10-19T03:10:25;10.97;;;6.43;;
55292;SDS011;41157;53.560;10.098;2023-10-19T03:13:07;15.87;;;6.80;;
55292;SDS011;41157;53.560;10.098;2023-10-19T03:15:33;10.30;;;6.67;;
55292;SDS011;41157;53.560;10.098;2023-10-19T03:18:02;11.73;;;6.77;;
55292;SDS011;41157;53.560;10.098;2023-10-19T03:20:29;11.63;;;6.53;;
55292;SDS011;41157;53.560;10.098;2023-10-19T03:22:58;8.10;;;5.97;;
55292;SDS011;41157;53.560;10.098;2023-10-19T03:25:26;9.63;;;6.53;;
55292;SDS011;41157;53.560;10.098;2023-10-19T03:28:10;8.23;;;5.87;;
55292;SDS011;41157;53.560;10.098;2023-10-19T03:30:38;10.93;;;6.90;;
55292;SDS011;41157;53.560;10.098;2023-10-19T03:33:06;18.53;;;6.43;;
55292;SDS011;41157;53.560;10.098;2023-10-19T03:35:35;13.47;;;6.80;;
55292;SDS011;41157;53.560;10.098;2023-10-19T03:38:02;14.50;;;6.97;;
55292;SDS011;41157;53.560;10.098;2023-10-19T03:40:33;12.37;;;6.27;;
55292;SDS011;41157;53.560;10.098;2023-10-19T03:43:03;11.97;;;6.80;;
55292;SDS011;41157;53.560;10.098;2023-10-19T03:48:30;12.77;;;7.10;;
55292;SDS011;41157;53.560;10.098;2023-10-19T03:51:02;12.17;;;6.97;;
55292;SDS011;41157;53.560;10.098;2023-10-19T03:53:30;9.30;;;6.43;;
55292;SDS011;41157;53.560;10.098;2023-10-19T03:55:57;11.13;;;7.03;;
55292;SDS011;41157;53.560;10.098;2023-10-19T03:58:24;12.27;;;6.57;;
55292;SDS011;41157;53.560;10.098;2023-10-19T04:00:54;10.63;;;6.43;;
55292;SDS011;41157;53.560;10.098;2023-10-19T04:03:26;11.83;;;6.47;;
55292;SDS011;41157;53.560;10.098;2023-10-19T04:05:57;11.53;;;6.50;;
55292;SDS011;41157;53.560;10.098;2023-10-19T04:08:28;11.63;;;6.20;;
55292;SDS011;41157;53.560;10.098;2023-10-19T04:11:00;12.60;;;6.93;;
55292;SDS011;41157;53.560;10.098;2023-10-19T04:13:45;12.37;;;6.97;;
55292;SDS011;41157;53.560;10.098;2023-10-19T04:16:12;13.03;;;6.50;;
55292;SDS011;41157;53.560;10.098;2023-10-19T04:18:39;12.33;;;6.73;;
55292;SDS011;41157;53.560;10.098;2023-10-19T04:21:10;12.03;;;6.60;;
55292;SDS011;41157;53.560;10.098;2023-10-19T04:23:37;13.70;;;7.27;;
55292;SDS011;41157;53.560;10.098;2023-10-19T04:26:04;17.20;;;7.17;;
55292;SDS011;41157;53.560;10.098;2023-10-19T04:28:35;11.03;;;6.83;;
55292;SDS011;41157;53.560;10.098;2023-10-19T04:31:06;11.67;;;7.03;;
55292;SDS011;41157;53.560;10.098;2023-10-19T04:33:38;11.87;;;7.37;;
55292;SDS011;41157;53.560;10.098;2023-10-19T04:36:07;12.23;;;6.77;;
55292;SDS011;41157;53.560;10.098;2023-10-19T04:38:37;19.80;;;7.30;;
55292;SDS011;41157;53.560;10.098;2023-10-19T04:41:05;16.80;;;7.33;;
55292;SDS011;41157;53.560;10.098;2023-10-19T04:43:35;10.57;;;7.10;;
55292;SDS011;41157;53.560;10.098;2023-10-19T04:46:06;12.63;;;6.90;;
55292;SDS011;41157;53.560;10.098;2023-10-19T04:48:36;10.33;;;6.63;;
55292;SDS011;41157;53.560;10.098;2023-10-19T04:51:04;12.87;;;7.90;;
55292;SDS011;41157;53.560;10.098;2023-10-19T04:53:31;15.27;;;7.23;;
55292;SDS011;41157;53.560;10.098;2023-10-19T04:56:00;12.57;;;7.63;;
55292;SDS011;41157;53.560;10.098;2023-10-19T04:58:28;11.13;;;7.33;;
55292;SDS011;41157;53.560;10.098;2023-10-19T05:00:55;10.53;;;6.70;;
55292;SDS011;41157;53.560;10.098;2023-10-19T05:03:23;11.93;;;7.50;;
55292;SDS011;41157;53.560;10.098;2023-10-19T05:05:50;12.50;;;7.23;;
55292;SDS011;41157;53.560;10.098;2023-10-19T05:08:17;15.70;;;7.87;;
55292;SDS011;41157;53.560;10.098;2023-10-19T05:10:44;11.60;;;7.90;;
55292;SDS011;41157;53.560;10.098;2023-10-19T05:13:14;11.80;;;7.20;;
55292;SDS011;41157;53.560;10.098;2023-10-19T05:15:41;11.63;;;7.57;;
55292;SDS011;41157;53.560;10.098;2023-10-19T05:18:08;13.30;;;8.10;;
55292;SDS011;41157;53.560;10.098;2023-10-19T05:20:37;13.83;;;7.80;;
55292;SDS011;41157;53.560;10.098;2023-10-19T05:23:05;11.00;;;7.37;;
55292;SDS011;41157;53.560;10.098;2023-10-19T05:25:33;12.50;;;7.67;;
55292;SDS011;41157;53.560;10.098;2023-10-19T05:28:01;14.53;;;7.87;;
55292;SDS011;41157;53.560;10.098;2023-10-19T05:30:29;13.20;;;6.83;;
55292;SDS011;41157;53.560;10.098;2023-10-19T05:32:57;10.17;;;7.17;;
55292;SDS011;41157;53.560;10.098;2023-10-19T05:35:24;12.50;;;7.80;;
55292;SDS011;41157;53.560;10.098;2023-10-19T05:37:52;13.40;;;7.70;;
55292;SDS011;41157;53.560;10.098;2023-10-19T05:40:20;16.07;;;7.23;;
55292;SDS011;41157;53.560;10.098;2023-10-19T05:42:48;12.93;;;7.47;;
55292;SDS011;41157;53.560;10.098;2023-10-19T05:45:15;11.70;;;7.40;;
55292;SDS011;41157;53.560;10.098;2023-10-19T05:47:44;13.70;;;8.13;;
55292;SDS011;41157;53.560;10.098;2023-10-19T05:50:11;12.53;;;8.00;;
55292;SDS011;41157;53.560;10.098;2023-10-19T05:52:40;12.97;;;8.00;;
55292;SDS011;41157;53.560;10.098;2023-10-19T05:55:08;13.57;;;7.77;;
55292;SDS011;41157;53.560;10.098;2023-10-19T05:57:36;11.93;;;7.80;;
55292;SDS011;41157;53.560;10.098;2023-10-19T06:00:06;11.17;;;7.07;;
55292;SDS011;41157;53.560;10.098;2023-10-19T06:02:33;12.43;;;7.57;;
55292;SDS011;41157;53.560;10.098;2023-10-19T06:05:01;15.93;;;8.70;;
55292;SDS011;41157;53.560;10.098;2023-10-19T06:07:30;13.07;;;7.80;;
55292;SDS011;41157;53.560;10.098;2023-10-19T06:09:57;12.07;;;7.73;;
55292;SDS011;41157;53.560;10.098;2023-10-19T06:12:28;12.03;;;7.87;;
55292;SDS011;41157;53.560;10.098;2023-10-19T06:14:55;11.00;;;7.10;;
55292;SDS011;41157;53.560;10.098;2023-10-19T06:17:22;11.10;;;7.20;;
55292;SDS011;41157;53.560;10.098;2023-10-19T06:19:49;12.13;;;7.63;;
55292;SDS011;41157;53.560;10.098;2023-10-19T06:22:18;11.63;;;7.37;;
55292;SDS011;41157;53.560;10.098;2023-10-19T06:24:45;15.67;;;8.10;;
55292;SDS011;41157;53.560;10.098;2023-10-19T06:27:12;12.30;;;7.87;;
55292;SDS011;41157;53.560;10.098;2023-10-19T06:29:39;14.80;;;8.13;;
55292;SDS011;41157;53.560;10.098;2023-10-19T06:32:06;13.37;;;8.40;;
55292;SDS011;41157;53.560;10.098;2023-10-19T06:34:34;12.40;;;7.80;;
55292;SDS011;41157;53.560;10.098;2023-10-19T06:37:01;13.73;;;7.87;;
55292;SDS011;41157;53.560;10.098;2023-10-19T06:39:30;12.83;;;7.37;;
55292;SDS011;41157;53.560;10.098;2023-10-19T06:41:57;13.40;;;7.87;;
55292;SDS011;41157;53.560;10.098;2023-10-19T06:44:24;11.97;;;7.77;;
55292;SDS011;41157;53.560;10.098;2023-10-19T06:46:51;15.17;;;8.27;;
55292;SDS011;41157;53.560;10.098;2023-10-19T06:49:18;12.07;;;8.07;;
55292;SDS011;41157;53.560;10.098;2023-10-19T06:51:45;12.50;;;7.67;;
55292;SDS011;41157;53.560;10.098;2023-10-19T06:54:12;15.70;;;8.13;;
55292;SDS011;41157;53.560;10.098;2023-10-19T06:56:40;16.23;;;7.37;;
55292;SDS011;41157;53.560;10.098;2023-10-19T06:59:10;11.63;;;7.70;;
55292;SDS011;41157;53.560;10.098;2023-10-19T07:01:38;15.00;;;7.87;;
55292;SDS011;41157;53.560;10.098;2023-10-19T07:04:05;14.03;;;7.83;;
55292;SDS011;41157;53.560;10.098;2023-10-19T07:06:32;15.23;;;8.57;;
55292;SDS011;41157;53.560;10.098;2023-10-19T07:09:00;14.50;;;7.67;;
55292;SDS011;41157;53.560;10.098;2023-10-19T07:11:28;15.00;;;8.20;;
55292;SDS011;41157;53.560;10.098;2023-10-19T07:13:57;11.47;;;7.43;;
55292;SDS011;41157;53.560;10.098;2023-10-19T07:16:25;13.43;;;7.80;;
55292;SDS011;41157;53.560;10.098;2023-10-19T07:18:52;13.57;;;8.17;;
55292;SDS011;41157;53.560;10.098;2023-10-19T07:21:19;14.60;;;7.17;;
55292;SDS011;41157;53.560;10.098;2023-10-19T07:23:48;14.90;;;8.40;;
55292;SDS011;41157;53.560;10.098;2023-10-19T07:26:17;11.63;;;7.53;;
55292;SDS011;41157;53.560;10.098;2023-10-19T07:28:46;13.47;;;7.20;;
55292;SDS011;41157;53.560;10.098;2023-10-19T07:31:14;12.90;;;8.10;;
55292;SDS011;41157;53.560;10.098;2023-10-19T07:33:42;14.13;;;7.37;;
55292;SDS011;41157;53.560;10.098;2023-10-19T07:36:12;17.07;;;8.47;;
55292;SDS011;41157;53.560;10.098;2023-10-19T07:38:39;12.37;;;7.90;;
55292;SDS011;41157;53.560;10.098;2023-10-19T07:41:07;17.70;;;7.80;;
55292;SDS011;41157;53.560;10.098;2023-10-19T07:43:34;13.07;;;7.43;;
55292;SDS011;41157;53.560;10.098;2023-10-19T07:46:01;13.07;;;8.20;;
55292;SDS011;41157;53.560;10.098;2023-10-19T07:48:30;14.80;;;7.93;;
55292;SDS011;41157;53.560;10.098;2023-10-19T07:50:57;14.37;;;7.87;;
55292;SDS011;41157;53.560;10.098;2023-10-19T07:53:24;12.57;;;8.00;;
55292;SDS011;41157;53.560;10.098;2023-10-19T07:55:51;11.73;;;7.47;;
55292;SDS011;41157;53.560;10.098;2023-10-19T07:58:18;16.57;;;8.57;;
55292;SDS011;41157;53.560;10.098;2023-10-19T08:00:45;16.17;;;8.73;;
55292;SDS011;41157;53.560;10.098;2023-10-19T08:03:12;13.17;;;8.10;;
55292;SDS011;41157;53.560;10.098;2023-10-19T08:05:42;13.13;;;8.00;;
55292;SDS011;41157;53.560;10.098;2023-10-19T08:08:09;13.43;;;8.50;;
55292;SDS011;41157;53.560;10.098;2023-10-19T08:10:37;14.23;;;8.13;;
55292;SDS011;41157;53.560;10.098;2023-10-19T08:13:04;15.03;;;8.47;;
55292;SDS011;41157;53.560;10.098;2023-10-19T08:15:32;13.53;;;7.43;;
55292;SDS011;41157;53.560;10.098;2023-10-19T08:17:59;12.50;;;8.00;;
55292;SDS011;41157;53.560;10.098;2023-10-19T08:20:26;16.50;;;8.30;;
55292;SDS011;41157;53.560;10.098;2023-10-19T08:22:57;16.00;;;8.10;;
55292;SDS011;41157;53.560;10.098;2023-10-19T08:25:26;15.00;;;8.60;;
55292;SDS011;41157;53.560;10.098;2023-10-19T08:27:53;13.37;;;7.77;;
55292;SDS011;41157;53.560;10.098;2023-10-19T08:30:22;13.77;;;8.13;;
55292;SDS011;41157;53.560;10.098;2023-10-19T08:32:50;14.47;;;8.77;;
55292;SDS011;41157;53.560;10.098;2023-10-19T08:35:18;12.00;;;7.63;;
55292;SDS011;41157;53.560;10.098;2023-10-19T08:37:49;14.13;;;8.70;;
55292;SDS011;41157;53.560;10.098;2023-10-19T08:40:18;14.30;;;8.03;;
55292;SDS011;41157;53.560;10.098;2023-10-19T08:42:46;18.17;;;8.73;;
55292;SDS011;41157;53.560;10.098;2023-10-19T08:45:14;12.93;;;8.47;;
55292;SDS011;41157;53.560;10.098;2023-10-19T08:47:43;14.80;;;8.27;;
55292;SDS011;41157;53.560;10.098;2023-10-19T08:50:12;14.10;;;7.80;;
55292;SDS011;41157;53.560;10.098;2023-10-19T08:52:40;12.03;;;8.07;;
55292;SDS011;41157;53.560;10.098;2023-10-19T08:55:08;17.30;;;8.97;;
55292;SDS011;41157;53.560;10.098;2023-10-19T08:57:39;16.13;;;8.87;;
55292;SDS011;41157;53.560;10.098;2023-10-19T09:00:06;11.93;;;8.33;;
55292;SDS011;41157;53.560;10.098;2023-10-19T09:02:34;14.63;;;8.83;;
55292;SDS011;41157;53.560;10.098;2023-10-19T09:05:05;14.03;;;8.90;;
55292;SDS011;41157;53.560;10.098;2023-10-19T09:07:32;14.07;;;8.20;;
55292;SDS011;41157;53.560;10.098;2023-10-19T09:09:59;15.10;;;8.50;;
55292;SDS011;41157;53.560;10.098;2023-10-19T09:12:28;14.83;;;8.93;;
55292;SDS011;41157;53.560;10.098;2023-10-19T09:14:56;15.37;;;9.33;;
55292;SDS011;41157;53.560;10.098;2023-10-19T09:17:27;16.00;;;8.87;;
55292;SDS011;41157;53.560;10.098;2023-10-19T09:19:54;13.83;;;8.70;;
55292;SDS011;41157;53.560;10.098;2023-10-19T09:22:24;15.10;;;9.60;;
55292;SDS011;41157;53.560;10.098;2023-10-19T09:24:52;14.13;;;9.07;;
55292;SDS011;41157;53.560;10.098;2023-10-19T09:27:20;13.20;;;8.33;;
55292;SDS011;41157;53.560;10.098;2023-10-19T09:29:47;15.97;;;9.10;;
55292;SDS011;41157;53.560;10.098;2023-10-19T09:32:16;12.50;;;8.40;;
55292;SDS011;41157;53.560;10.098;2023-10-19T09:34:44;16.80;;;9.00;;
55292;SDS011;41157;53.560;10.098;2023-10-19T09:37:12;15.10;;;8.63;;
55292;SDS011;41157;53.560;10.098;2023-10-19T09:39:39;16.13;;;9.20;;
55292;SDS011;41157;53.560;10.098;2023-10-19T09:42:08;14.13;;;8.67;;
55292;SDS011;41157;53.560;10.098;2023-10-19T09:44:39;14.53;;;8.87;;
55292;SDS011;41157;53.560;10.098;2023-10-19T09:47:08;17.27;;;9.03;;
55292;SDS011;41157;53.560;10.098;2023-10-19T09:49:38;14.10;;;9.30;;
55292;SDS011;41157;53.560;10.098;2023-10-19T09:52:06;12.30;;;8.57;;
55292;SDS011;41157;53.560;10.098;2023-10-19T09:54:34;15.37;;;9.07;;
55292;SDS011;41157;53.560;10.098;2023-10-19T09:57:10;13.30;;;8.80;;
55292;SDS011;41157;53.560;10.098;2023-10-19T09:59:41;15.53;;;9.00;;
55292;SDS011;41157;53.560;10.098;2023-10-19T10:02:11;14.67;;;8.60;;
55292;SDS011;41157;53.560;10.098;2023-10-19T10:04:40;15.33;;;9.37;;
55292;SDS011;41157;53.560;10.098;2023-10-19T10:07:07;15.37;;;7.90;;
55292;SDS011;41157;53.560;10.098;2023-10-19T10:09:36;15.23;;;9.03;;
55292;SDS011;41157;53.560;10.098;2023-10-19T10:12:15;15.07;;;9.10;;
55292;SDS011;41157;53.560;10.098;2023-10-19T10:14:52;15.00;;;9.07;;
55292;SDS011;41157;53.560;10.098;2023-10-19T10:17:19;17.67;;;8.60;;
55292;SDS011;41157;53.560;10.098;2023-10-19T10:19:49;15.23;;;8.87;;
55292;SDS011;41157;53.560;10.098;2023-10-19T10:22:16;12.57;;;8.30;;
55292;SDS011;41157;53.560;10.098;2023-10-19T10:24:48;13.67;;;7.90;;
55292;SDS011;41157;53.560;10.098;2023-10-19T10:27:20;12.17;;;8.60;;
55292;SDS011;41157;53.560;10.098;2023-10-19T10:29:56;13.27;;;8.50;;
55292;SDS011;41157;53.560;10.098;2023-10-19T10:32:43;14.10;;;8.27;;
55292;SDS011;41157;53.560;10.098;2023-10-19T10:35:14;16.17;;;9.27;;
55292;SDS011;41157;53.560;10.098;2023-10-19T10:38:02;11.57;;;7.67;;
55292;SDS011;41157;53.560;10.098;2023-10-19T10:40:30;12.43;;;8.23;;
55292;SDS011;41157;53.560;10.098;2023-10-19T10:43:04;13.13;;;8.50;;
55292;SDS011;41157;53.560;10.098;2023-10-19T10:45:31;16.00;;;8.50;;
55292;SDS011;41157;53.560;10.098;2023-10-19T10:47:58;13.23;;;8.57;;
55292;SDS011;41157;53.560;10.098;2023-10-19T10:50:27;13.40;;;7.50;;
55292;SDS011;41157;53.560;10.098;2023-10-19T10:52:54;13.83;;;8.43;;
55292;SDS011;41157;53.560;10.098;2023-10-19T10:55:23;15.33;;;8.23;;
55292;SDS011;41157;53.560;10.098;2023-10-19T10:57:52;13.33;;;7.47;;
55292;SDS011;41157;53.560;10.098;2023-10-19T11:00:21;13.03;;;8.20;;
55292;SDS011;41157;53.560;10.098;2023-10-19T11:02:58;12.27;;;8.07;;
55292;SDS011;41157;53.560;10.098;2023-10-19T11:05:27;13.00;;;8.70;;
55292;SDS011;41157;53.560;10.098;2023-10-19T11:08:05;14.87;;;7.80;;
55292;SDS011;41157;53.560;10.098;2023-10-19T11:10:32;14.83;;;8.10;;
55292;SDS011;41157;53.560;10.098;2023-10-19T11:13:00;13.33;;;8.23;;
55292;SDS011;41157;53.560;10.098;2023-10-19T11:15:27;13.90;;;8.13;;
55292;SDS011;41157;53.560;10.098;2023-10-19T11:17:54;12.73;;;8.40;;
55292;SDS011;41157;53.560;10.098;2023-10-19T11:20:23;15.73;;;8.30;;
55292;SDS011;41157;53.560;10.098;2023-10-19T11:22:52;12.67;;;8.33;;
55292;SDS011;41157;53.560;10.098;2023-10-19T11:25:21;15.43;;;8.73;;
55292;SDS011;41157;53.560;10.098;2023-10-19T11:27:48;15.00;;;8.07;;
55292;SDS011;41157;53.560;10.098;2023-10-19T11:30:22;17.60;;;8.63;;
55292;SDS011;41157;53.560;10.098;2023-10-19T11:32:49;13.17;;;8.17;;
55292;SDS011;41157;53.560;10.098;2023-10-19T11:35:18;12.50;;;8.27;;
55292;SDS011;41157;53.560;10.098;2023-10-19T11:37:46;14.60;;;8.90;;
55292;SDS011;41157;53.560;10.098;2023-10-19T11:40:14;14.13;;;9.13;;
55292;SDS011;41157;53.560;10.098;2023-10-19T11:42:42;16.00;;;8.83;;
55292;SDS011;41157;53.560;10.098;2023-10-19T11:45:09;14.27;;;8.97;;
55292;SDS011;41157;53.560;10.098;2023-10-19T11:47:37;13.37;;;8.10;;
55292;SDS011;41157;53.560;10.098;2023-10-19T11:50:04;16.90;;;9.13;;
55292;SDS011;41157;53.560;10.098;2023-10-19T11:52:31;13.17;;;8.73;;
55292;SDS011;41157;53.560;10.098;2023-10-19T11:54:58;14.93;;;9.00;;
55292;SDS011;41157;53.560;10.098;2023-10-19T11:57:26;13.80;;;8.87;;
55292;SDS011;41157;53.560;10.098;2023-10-19T11:59:53;16.10;;;8.77;;
55292;SDS011;41157;53.560;10.098;2023-10-19T12:02:22;14.03;;;7.97;;
55292;SDS011;41157;53.560;10.098;2023-10-19T12:04:49;10.63;;;7.60;;
55292;SDS011;41157;53.560;10.098;2023-10-19T12:07:16;13.33;;;8.50;;
55292;SDS011;41157;53.560;10.098;2023-10-19T12:09:43;12.17;;;7.90;;
55292;SDS011;41157;53.560;10.098;2023-10-19T12:12:11;15.30;;;8.43;;
55292;SDS011;41157;53.560;10.098;2023-10-19T12:14:39;14.30;;;8.67;;
55292;SDS011;41157;53.560;10.098;2023-10-19T12:17:06;14.10;;;8.33;;
55292;SDS011;41157;53.560;10.098;2023-10-19T12:19:34;14.43;;;8.13;;
55292;SDS011;41157;53.560;10.098;2023-10-19T12:22:01;12.10;;;7.73;;
55292;SDS011;41157;53.560;10.098;2023-10-19T12:24:28;12.23;;;7.73;;
55292;SDS011;41157;53.560;10.098;2023-10-19T12:26:55;11.33;;;8.57;;
55292;SDS011;41157;53.560;10.098;2023-10-19T12:29:22;11.30;;;7.73;;
55292;SDS011;41157;53.560;10.098;2023-10-19T12:31:52;14.53;;;8.50;;
55292;SDS011;41157;53.560;10.098;2023-10-19T12:34:18;16.43;;;8.47;;
55292;SDS011;41157;53.560;10.098;2023-10-19T12:36:47;11.30;;;8.10;;
55292;SDS011;41157;53.560;10.098;2023-10-19T12:39:14;11.83;;;7.83;;
55292;SDS011;41157;53.560;10.098;2023-10-19T12:42:00;12.40;;;7.43;;
55292;SDS011;41157;53.560;10.098;2023-10-19T12:44:28;16.73;;;8.20;;
55292;SDS011;41157;53.560;10.098;2023-10-19T12:47:03;14.83;;;7.90;;
55292;SDS011;41157;53.560;10.098;2023-10-19T12:49:34;16.67;;;8.17;;
55292;SDS011;41157;53.560;10.098;2023-10-19T12:52:01;13.50;;;8.57;;
55292;SDS011;41157;53.560;10.098;2023-10-19T12:54:29;13.67;;;8.20;;
55292;SDS011;41157;53.560;10.098;2023-10-19T12:56:56;18.33;;;9.30;;
55292;SDS011;41157;53.560;10.098;2023-10-19T12:59:23;15.87;;;8.70;;
55292;SDS011;41157;53.560;10.098;2023-10-19T13:01:50;12.83;;;8.80;;
55292;SDS011;41157;53.560;10.098;2023-10-19T13:04:24;12.53;;;8.83;;
55292;SDS011;41157;53.560;10.098;2023-10-19T13:06:54;16.20;;;8.93;;
55292;SDS011;41157;53.560;10.098;2023-10-19T13:09:22;13.97;;;8.30;;
55292;SDS011;41157;53.560;10.098;2023-10-19T13:11:55;16.33;;;9.10;;
55292;SDS011;41157;53.560;10.098;2023-10-19T13:14:22;17.63;;;8.20;;
55292;SDS011;41157;53.560;10.098;2023-10-19T13:16:49;12.70;;;8.37;;
55292;SDS011;41157;53.560;10.098;2023-10-19T13:19:17;14.67;;;9.17;;
55292;SDS011;41157;53.560;10.098;2023-10-19T13:21:47;12.30;;;8.07;;
55292;SDS011;41157;53.560;10.098;2023-10-19T13:24:15;12.10;;;8.40;;
55292;SDS011;41157;53.560;10.098;2023-10-19T13:26:42;12.47;;;8.47;;
55292;SDS011;41157;53.560;10.098;2023-10-19T13:29:11;13.70;;;8.97;;
55292;SDS011;41157;53.560;10.098;2023-10-19T13:31:39;21.00;;;8.27;;
55292;SDS011;41157;53.560;10.098;2023-10-19T13:34:09;13.00;;;8.10;;
55292;SDS011;41157;53.560;10.098;2023-10-19T13:36:38;12.70;;;7.90;;
55292;SDS011;41157;53.560;10.098;2023-10-19T13:39:07;15.87;;;7.93;;
55292;SDS011;41157;53.560;10.098;2023-10-19T13:41:38;16.43;;;8.37;;
55292;SDS011;41157;53.560;10.098;2023-10-19T13:44:05;11.70;;;8.17;;
55292;SDS011;41157;53.560;10.098;2023-10-19T13:46:32;15.67;;;8.63;;
55292;SDS011;41157;53.560;10.098;2023-10-19T13:48:59;14.57;;;8.57;;
55292;SDS011;41157;53.560;10.098;2023-10-19T13:51:28;11.60;;;7.47;;
55292;SDS011;41157;53.560;10.098;2023-10-19T13:53:56;11.03;;;8.00;;
55292;SDS011;41157;53.560;10.098;2023-10-19T13:56:25;16.87;;;8.27;;
55292;SDS011;41157;53.560;10.098;2023-10-19T13:58:52;19.57;;;8.40;;
55292;SDS011;41157;53.560;10.098;2023-10-19T14:01:19;16.10;;;8.10;;
55292;SDS011;41157;53.560;10.098;2023-10-19T14:03:50;14.30;;;8.47;;
55292;SDS011;41157;53.560;10.098;2023-10-19T14:06:20;12.03;;;7.70;;
55292;SDS011;41157;53.560;10.098;2023-10-19T14:08:49;14.23;;;8.00;;
55292;SDS011;41157;53.560;10.098;2023-10-19T14:11:16;15.17;;;8.80;;
55292;SDS011;41157;53.560;10.098;2023-10-19T14:13:45;15.43;;;8.57;;
55292;SDS011;41157;53.560;10.098;2023-10-19T14:16:12;12.83;;;8.13;;
55292;SDS011;41157;53.560;10.098;2023-10-19T14:18:39;16.27;;;8.17;;
55292;SDS011;41157;53.560;10.098;2023-10-19T14:21:13;15.37;;;8.30;;
55292;SDS011;41157;53.560;10.098;2023-10-19T14:23:40;21.30;;;8.47;;
55292;SDS011;41157;53.560;10.098;2023-10-19T14:26:08;12.07;;;7.67;;
55292;SDS011;41157;53.560;10.098;2023-10-19T14:28:35;18.97;;;8.50;;
55292;SDS011;41157;53.560;10.098;2023-10-19T14:31:04;10.03;;;7.63;;
55292;SDS011;41157;53.560;10.098;2023-10-19T14:33:32;13.10;;;7.87;;
55292;SDS011;41157;53.560;10.098;2023-10-19T14:36:00;13.70;;;8.50;;
55292;SDS011;41157;53.560;10.098;2023-10-19T14:38:27;12.87;;;7.70;;